Time;durP1;ratioP1;P1;durP2;ratioP2;P2;SDS_P1;SDS_P2;PMS_P1;PMS_P2;Temp;Humidity;BMP_temperature;BMP_pressure;BME280_temperature;BME280_humidity;BME280_pressure;Samples;Min_cycle;Max_cycle;Signal;HPM_P1;HPM_P2
2023/08/01 00:01:28;;;;;;;18.02;8.45;;;;;;;19.19;82.99;100144.34;1750101;80;21262;-56
2023/08/01 00:04:34;;;;;;;18.12;8.23;;;;;;;19.17;83.06;100140.95;1742178;77;21369;-55
2023/08/01 00:07:41;;;;;;;23.57;8.65;;;;;;;19.17;83.13;100147.07;1754675;77;21201;-56
2023/08/01 00:10:47;;;;;;;17.70;8.68;;;;;;;19.15;83.20;100138.95;1751240;80;21920;-55
2023/08/01 00:13:54;;;;;;;17.17;7.92;;;;;;;19.13;83.16;100138.36;1750798;80;21389;-56
2023/08/01 00:17:00;;;;;;;19.07;9.08;;;;;;;19.11;83.15;100137.75;1762247;79;22172;-56
2023/08/01 00:20:07;;;;;;;21.95;8.93;;;;;;;19.11;83.22;100144.69;1758051;79;21748;-56
2023/08/01 00:23:13;;;;;;;16.62;8.65;;;;;;;19.10;83.28;100143.53;1746666;79;21393;-56
2023/08/01 00:26:18;;;;;;;27.10;8.68;;;;;;;19.09;83.32;100139.91;1765475;80;21334;-56
2023/08/01 00:29:24;;;;;;;25.97;9.58;;;;;;;19.08;83.31;100135.45;1757570;77;21453;-56
2023/08/01 00:32:29;;;;;;;25.27;9.15;;;;;;;19.07;83.39;100137.94;1744215;78;21213;-56
2023/08/01 00:35:35;;;;;;;22.60;9.10;;;;;;;19.07;83.43;100129.61;1763254;80;21339;-56
2023/08/01 00:38:43;;;;;;;17.62;8.45;;;;;;;19.06;83.48;100127.04;1762154;80;21405;-55
2023/08/01 00:41:48;;;;;;;17.40;8.58;;;;;;;19.05;83.55;100123.44;1741632;77;21763;-55
2023/08/01 00:44:54;;;;;;;22.48;9.35;;;;;;;19.05;83.59;100126.22;1755737;79;21207;-56
2023/08/01 00:48:02;;;;;;;15.20;8.35;;;;;;;19.05;83.68;100128.99;1768669;78;21358;-56
2023/08/01 00:51:14;;;;;;;22.45;8.18;;;;;;;19.06;83.78;100135.36;1750194;77;21255;-56
2023/08/01 00:54:20;;;;;;;23.07;9.00;;;;;;;19.06;83.85;100136.75;1733114;79;21389;-55
2023/08/01 00:57:26;;;;;;;22.27;8.93;;;;;;;19.06;83.85;100136.22;1755899;80;21906;-55
2023/08/01 01:00:33;;;;;;;21.27;9.25;;;;;;;19.05;83.84;100136.45;1743233;79;21772;-55
2023/08/01 01:03:40;;;;;;;22.98;8.73;;;;;;;19.04;83.85;100129.23;1736164;80;21405;-55
2023/08/01 01:07:09;;;;;;;22.85;9.58;;;;;;;19.03;83.90;100131.67;1760122;80;21434;-56
2023/08/01 01:10:16;;;;;;;15.93;8.63;;;;;;;19.01;83.89;100133.87;1763886;80;21362;-55
2023/08/01 01:13:21;;;;;;;20.40;9.30;;;;;;;19.00;83.94;100126.61;1743999;77;21401;-56
2023/08/01 01:16:28;;;;;;;30.80;9.90;;;;;;;18.99;84.02;100124.92;1759805;80;21343;-55
2023/08/01 01:19:34;;;;;;;21.42;9.78;;;;;;;18.99;84.11;100126.31;1739124;79;21211;-55
2023/08/01 01:22:40;;;;;;;18.75;9.73;;;;;;;18.98;84.19;100124.07;1750417;80;21818;-56
2023/08/01 01:25:46;;;;;;;28.62;9.70;;;;;;;18.97;84.26;100125.16;1743246;79;21866;-56
2023/08/01 01:28:51;;;;;;;14.18;9.63;;;;;;;18.96;84.32;100122.06;1758439;78;21334;-56
2023/08/01 01:31:57;;;;;;;12.40;9.68;;;;;;;18.95;84.27;100117.61;1766697;77;21362;-56
2023/08/01 01:35:04;;;;;;;13.83;9.23;;;;;;;18.93;84.22;100115.60;1743474;77;21188;-55
2023/08/01 01:38:11;;;;;;;13.98;9.08;;;;;;;18.94;84.27;100117.84;1733512;79;21430;-56
2023/08/01 01:41:17;;;;;;;19.57;9.23;;;;;;;18.94;84.36;100114.55;1751286;79;22083;-56
2023/08/01 01:44:23;;;;;;;20.70;9.20;;;;;;;18.94;84.43;100107.61;1738267;80;21446;-56
2023/08/01 01:47:28;;;;;;;21.90;9.15;;;;;;;18.94;84.45;100107.61;1749897;78;21477;-56
2023/08/01 01:50:35;;;;;;;29.35;9.50;;;;;;;18.96;84.54;100116.52;1763766;80;21410;-55
2023/08/01 01:53:41;;;;;;;23.47;9.83;;;;;;;18.99;84.67;100125.78;1753417;77;22811;-55
2023/08/01 01:56:48;;;;;;;11.85;9.83;;;;;;;19.00;84.70;100119.67;1758486;80;21424;-55
2023/08/01 01:59:53;;;;;;;12.93;9.15;;;;;;;19.00;84.72;100123.30;1755468;80;21424;-55
2023/08/01 02:03:02;;;;;;;16.00;10.48;;;;;;;18.99;84.70;100126.31;1751900;80;21236;-55
2023/08/01 02:06:09;;;;;;;26.65;12.35;;;;;;;18.99;84.75;100116.07;1764576;80;21350;-54
2023/08/01 02:09:15;;;;;;;24.02;10.68;;;;;;;19.00;84.83;100112.73;1769953;77;21200;-55
2023/08/01 02:12:22;;;;;;;34.25;10.43;;;;;;;19.00;84.79;100114.13;1769666;79;21367;-56
2023/08/01 02:15:28;;;;;;;29.67;10.78;;;;;;;19.00;84.84;100112.73;1752464;77;21204;-55
2023/08/01 02:18:33;;;;;;;24.85;10.08;;;;;;;18.99;84.87;100110.52;1759238;80;21358;-55
2023/08/01 02:21:40;;;;;;;22.98;9.95;;;;;;;18.98;84.92;100107.42;1752644;77;21364;-56
2023/08/01 02:24:47;;;;;;;28.10;9.85;;;;;;;18.97;84.86;100114.06;1733909;79;21227;-54
2023/08/01 02:27:52;;;;;;;28.77;9.80;;;;;;;18.93;84.80;100105.89;1755281;80;21343;-56
2023/08/01 02:30:58;;;;;;;31.17;9.90;;;;;;;18.92;84.84;100116.70;1738594;81;21847;-55
2023/08/01 02:34:04;;;;;;;41.95;10.03;;;;;;;18.93;84.90;100107.28;1760202;79;22061;-56
2023/08/01 02:37:10;;;;;;;32.60;9.30;;;;;;;18.94;84.94;100118.70;1736754;77;21204;-55
2023/08/01 02:40:17;;;;;;;28.30;9.88;;;;;;;18.93;85.01;100121.16;1740254;77;21326;-55
2023/08/01 02:43:24;;;;;;;36.23;10.20;;;;;;;18.93;85.02;100118.94;1746661;80;21740;-54
2023/08/01 02:46:31;;;;;;;33.23;8.63;;;;;;;18.92;85.07;100115.31;1754429;80;21357;-55
2023/08/01 02:49:38;;;;;;;35.25;9.65;;;;;;;18.92;85.11;100120.00;1752452;79;21867;-56
2023/08/01 02:52:44;;;;;;;33.75;10.28;;;;;;;18.90;85.10;100118.03;1747599;77;21219;-56
2023/08/01 02:55:52;;;;;;;41.50;10.20;;;;;;;18.89;85.11;100126.88;1762755;77;21385;-55
2023/08/01 02:58:58;;;;;;;23.92;9.53;;;;;;;18.91;85.19;100121.09;1730567;80;21409;-54
2023/08/01 03:02:03;;;;;;;29.07;10.58;;;;;;;18.90;85.15;100127.17;1760868;79;21807;-55
2023/08/01 03:05:10;;;;;;;29.85;10.55;;;;;;;18.90;85.05;100129.13;1748143;77;21215;-54
2023/08/01 03:08:16;;;;;;;35.40;11.97;;;;;;;18.91;85.12;100126.64;1751884;80;21720;-55
2023/08/01 03:11:22;;;;;;;27.95;11.48;;;;;;;18.93;85.12;100128.09;1747733;79;21274;-55
2023/08/01 03:14:30;;;;;;;25.05;11.25;;;;;;;18.95;85.15;100131.48;1758764;79;21467;-55
2023/08/01 03:17:35;;;;;;;36.38;10.85;;;;;;;19.00;85.28;100137.17;1758964;80;21815;-55
2023/08/01 03:20:41;;;;;;;23.70;10.10;;;;;;;19.05;85.34;100133.69;1783324;77;21969;-56
2023/08/01 03:23:49;;;;;;;27.75;11.33;;;;;;;19.07;85.35;100132.91;1777277;79;21347;-55
2023/08/01 03:26:54;;;;;;;27.07;11.08;;;;;;;19.10;85.21;100131.91;1769599;79;21252;-55
2023/08/01 03:30:01;;;;;;;18.30;10.18;;;;;;;19.13;85.27;100129.19;1781393;79;21971;-56
2023/08/01 03:33:09;;;;;;;19.87;9.98;;;;;;;19.14;85.21;100131.72;1777499;79;21355;-56
2023/08/01 03:36:15;;;;;;;23.73;9.95;;;;;;;19.17;85.23;100129.03;1773148;77;21363;-55
2023/08/01 03:39:21;;;;;;;22.15;8.83;;;;;;;19.21;85.29;100135.25;1781648;79;21390;-56
2023/08/01 03:42:28;;;;;;;24.35;9.05;;;;;;;19.28;85.29;100137.39;1780234;79;21362;-56
2023/08/01 03:45:35;;;;;;;31.80;9.25;;;;;;;19.32;85.22;100136.38;1742398;80;21860;-55
2023/08/01 03:48:40;;;;;;;26.50;9.25;;;;;;;19.37;85.26;100137.91;1707461;81;21739;-57
2023/08/01 03:51:46;;;;;;;29.87;8.28;;;;;;;19.44;85.33;100141.97;1724390;80;21247;-57
2023/08/01 03:54:52;;;;;;;25.48;8.55;;;;;;;19.53;85.34;100139.98;1714000;80;21422;-57
2023/08/01 03:57:59;;;;;;;19.35;7.87;;;;;;;19.62;85.37;100140.45;1775576;79;21836;-56
2023/08/01 04:01:06;;;;;;;22.32;8.58;;;;;;;19.66;85.20;100137.52;1767098;79;21864;-56
2023/08/01 04:04:13;;;;;;;20.97;8.65;;;;;;;19.69;85.26;100142.06;1760833;79;21208;-56
2023/08/01 04:07:18;;;;;;;20.60;8.33;;;;;;;19.70;85.13;100144.27;1765725;79;21382;-57
2023/08/01 04:10:25;;;;;;;20.88;8.35;;;;;;;19.67;84.94;100144.22;1766764;80;21184;-57
2023/08/01 04:13:31;;;;;;;29.82;9.33;;;;;;;19.68;85.03;100152.84;1766252;80;21737;-56
2023/08/01 04:16:38;;;;;;;25.77;11.15;;;;;;;19.73;85.12;100147.95;1765947;77;21322;-60
2023/08/01 04:19:44;;;;;;;28.07;11.78;;;;;;;19.81;85.28;100153.16;1770492;78;21880;-57
2023/08/01 04:22:49;;;;;;;26.73;11.75;;;;;;;19.90;85.41;100155.33;1771333;78;21406;-57
2023/08/01 04:25:55;;;;;;;25.92;11.83;;;;;;;19.99;85.39;100157.21;1768080;78;21206;-56
2023/08/01 04:29:00;;;;;;;25.43;11.65;;;;;;;20.06;85.33;100155.17;1766347;79;21379;-56
2023/08/01 04:32:07;;;;;;;17.52;10.35;;;;;;;20.13;85.31;100154.48;1769414;79;21362;-56
2023/08/01 04:35:14;;;;;;;27.20;9.08;;;;;;;20.24;85.50;100148.95;1764922;78;21825;-56
2023/08/01 04:38:20;;;;;;;15.90;9.20;;;;;;;20.37;85.73;100155.64;1762362;80;21184;-57
2023/08/01 04:41:27;;;;;;;23.35;9.15;;;;;;;20.50;85.86;100161.47;1765005;80;21831;-58
2023/08/01 04:44:34;;;;;;;10.90;8.35;;;;;;;20.60;85.80;100164.45;1688833;80;21235;-56
2023/08/01 04:47:42;;;;;;;14.25;8.68;;;;;;;20.68;85.70;100165.45;1747195;80;21776;-57
2023/08/01 04:50:49;;;;;;;13.03;7.80;;;;;;;20.74;85.62;100167.24;1781566;78;21841;-58
2023/08/01 04:53:58;;;;;;;24.32;9.58;;;;;;;20.81;85.53;100159.61;1771454;78;21216;-56
2023/08/01 04:57:03;;;;;;;11.65;9.88;;;;;;;20.85;85.46;100162.22;1710556;80;21340;-57
2023/08/01 05:00:10;;;;;;;15.65;12.25;;;;;;;20.88;85.38;100158.94;1703295;81;22064;-58
2023/08/01 05:03:18;;;;;;;13.45;11.85;;;;;;;20.91;85.41;100158.44;1769858;79;21302;-57
2023/08/01 05:06:24;;;;;;;16.52;12.80;;;;;;;20.93;85.43;100150.66;1734011;80;21201;-56
2023/08/01 05:09:30;;;;;;;15.95;13.05;;;;;;;21.04;85.71;100156.75;1741327;79;22572;-55
2023/08/01 05:12:37;;;;;;;16.77;13.40;;;;;;;21.16;85.85;100147.81;1730799;79;22817;-56
2023/08/01 05:15:45;;;;;;;20.23;13.10;;;;;;;21.29;85.85;100150.29;1702862;79;23140;-55
2023/08/01 05:18:50;;;;;;;18.90;12.68;;;;;;;21.41;85.88;100148.27;1724175;80;21212;-55
2023/08/01 05:21:56;;;;;;;16.35;13.48;;;;;;;21.54;85.94;100147.09;1716957;79;21255;-56
2023/08/01 05:25:03;;;;;;;26.07;13.80;;;;;;;21.64;85.89;100147.27;1764897;79;21877;-54
2023/08/01 05:28:10;;;;;;;24.82;18.98;;;;;;;21.71;85.88;100151.56;1756371;78;21287;-52
2023/08/01 05:31:15;;;;;;;30.00;22.77;;;;;;;21.77;85.88;100153.36;1766221;78;21410;-54
2023/08/01 05:34:21;;;;;;;40.00;27.75;;;;;;;21.87;85.97;100153.53;1750573;78;21243;-54
2023/08/01 05:37:26;;;;;;;35.95;28.92;;;;;;;21.99;85.99;100156.23;1753152;79;21519;-55
2023/08/01 05:40:33;;;;;;;31.75;24.87;;;;;;;22.12;86.02;100157.24;1742857;81;21622;-53
2023/08/01 05:43:39;;;;;;;28.67;22.87;;;;;;;22.20;85.91;100154.88;1761954;79;21321;-53
2023/08/01 05:46:46;;;;;;;27.05;22.75;;;;;;;22.26;85.78;100169.75;1764327;79;21216;-54
2023/08/01 05:49:52;;;;;;;30.62;27.02;;;;;;;22.32;85.76;100164.53;1776739;79;21792;-54
2023/08/01 05:53:16;;;;;;;28.32;25.27;;;;;;;22.40;85.75;100164.63;1777010;79;22141;-52
2023/08/01 05:56:22;;;;;;;28.10;25.10;;;;;;;22.52;85.90;100165.38;1747599;79;21391;-54
2023/08/01 05:59:33;;;;;;;;;;;;;;;22.60;85.81;100164.38;1767332;78;21438;-53
2023/08/01 06:02:38;;;;;;;22.17;19.73;;;;;;;22.69;85.84;100162.00;1750991;78;20197;-53
2023/08/01 06:05:53;;;;;;;23.70;18.80;;;;;;;22.76;85.90;100160.69;1772522;79;21263;-54
2023/08/01 06:09:00;;;;;;;23.22;20.48;;;;;;;22.87;85.83;100165.28;1772192;79;21893;-55
2023/08/01 06:12:05;;;;;;;25.57;20.15;;;;;;;22.99;85.97;100163.76;1761716;78;21216;-54
2023/08/01 06:15:12;;;;;;;25.60;21.57;;;;;;;23.06;85.87;100162.98;1771531;77;21239;-54
2023/08/01 06:18:18;;;;;;;28.30;23.85;;;;;;;23.11;85.69;100151.88;1756220;79;21256;-53
2023/08/01 06:21:23;;;;;;;29.67;23.30;;;;;;;23.14;85.72;100155.53;1774984;79;21481;-55
2023/08/01 06:24:29;;;;;;;31.15;23.07;;;;;;;23.16;85.65;100160.31;1760332;79;21344;-55
2023/08/01 06:27:35;;;;;;;35.43;25.95;;;;;;;23.20;85.73;100160.91;1767187;79;21862;-55
2023/08/01 06:30:41;;;;;;;37.58;28.67;;;;;;;23.25;85.77;100162.91;1773196;79;21789;-54
2023/08/01 06:33:47;;;;;;;34.45;24.82;;;;;;;23.27;85.85;100169.97;1781674;79;21692;-52
2023/08/01 06:36:53;;;;;;;34.53;26.52;;;;;;;23.32;86.09;100163.59;1777142;77;21657;-53
2023/08/01 06:39:59;;;;;;;28.80;23.02;;;;;;;23.38;86.30;100159.73;1770008;79;21327;-52
2023/08/01 06:43:04;;;;;;;23.73;20.10;;;;;;;23.45;86.45;100158.97;1763441;77;21592;-53
2023/08/01 06:46:10;;;;;;;24.20;20.68;;;;;;;23.49;86.47;100161.52;1765178;78;21235;-53
2023/08/01 06:49:16;;;;;;;24.40;20.10;;;;;;;23.51;86.42;100153.72;1766324;78;21212;-53
2023/08/01 06:52:21;;;;;;;28.67;20.15;;;;;;;23.52;86.39;100152.59;1741499;79;21368;-53
2023/08/01 06:55:25;;;;;;;29.42;21.50;;;;;;;23.53;86.34;100152.91;1759851;79;21224;-50
2023/08/01 06:58:32;;;;;;;22.95;17.73;;;;;;;23.56;86.49;100157.38;1769913;79;21483;-52
2023/08/01 07:01:40;;;;;;;20.70;16.73;;;;;;;23.61;86.55;100159.37;1777456;78;21927;-52
2023/08/01 07:04:47;;;;;;;19.35;16.73;;;;;;;23.66;86.62;100153.83;1778752;79;22020;-50
2023/08/01 07:07:52;;;;;;;16.60;13.30;;;;;;;23.72;86.77;100159.78;1756403;78;21316;-51
2023/08/01 07:10:59;;;;;;;14.33;12.35;;;;;;;23.81;86.87;100155.92;1763298;80;21346;-52
2023/08/01 07:14:06;;;;;;;12.58;10.55;;;;;;;23.93;86.97;100163.00;1763377;79;21799;-52
2023/08/01 07:17:12;;;;;;;12.25;10.55;;;;;;;24.08;87.01;100158.97;1775841;79;21733;-52
2023/08/01 07:20:20;;;;;;;11.22;10.08;;;;;;;24.24;87.05;100157.11;1785197;78;21761;-53
2023/08/01 07:23:26;;;;;;;21.93;12.03;;;;;;;24.42;87.04;100150.48;1734153;80;21325;-52
2023/08/01 07:26:33;;;;;;;13.93;10.65;;;;;;;24.60;87.03;100151.98;1762549;79;21212;-52
2023/08/01 07:29:40;;;;;;;13.95;9.98;;;;;;;24.74;86.93;100148.44;1759283;79;21256;-52
2023/08/01 07:32:47;;;;;;;12.58;10.82;;;;;;;24.91;86.86;100154.66;1760393;79;21228;-51
2023/08/01 07:35:54;;;;;;;11.90;10.03;;;;;;;25.08;86.79;100142.66;1744666;79;21188;-52
2023/08/01 07:39:01;;;;;;;12.05;10.08;;;;;;;25.25;86.62;100148.03;1736962;79;21210;-47
2023/08/01 07:42:10;;;;;;;11.65;8.90;;;;;;;25.36;86.45;100154.52;1773721;78;21949;-46
2023/08/01 07:45:17;;;;;;;11.38;9.45;;;;;;;25.48;86.27;100149.52;1767630;79;21358;-46
2023/08/01 07:48:29;;;;;;;10.03;8.35;;;;;;;25.62;86.15;100147.84;1710294;79;21369;-47
2023/08/01 07:51:36;;;;;;;10.23;7.92;;;;;;;25.79;86.06;100145.03;1701871;81;21742;-47
2023/08/01 07:54:45;;;;;;;10.08;7.50;;;;;;;25.88;85.50;100153.70;1739648;80;21361;-44
2023/08/01 07:57:50;;;;;;;10.45;6.92;;;;;;;25.94;85.17;100152.02;1758443;78;21287;-45
2023/08/01 08:00:56;;;;;;;10.23;7.55;;;;;;;26.07;85.10;100150.63;1764396;79;21295;-45
2023/08/01 08:04:03;;;;;;;7.62;6.83;;;;;;;26.20;84.96;100158.48;1762643;78;21219;-45
2023/08/01 08:07:09;;;;;;;7.92;6.70;;;;;;;26.30;84.51;100162.68;1754671;77;21368;-46
2023/08/01 08:10:16;;;;;;;9.33;7.40;;;;;;;26.37;84.21;100158.45;1751884;77;21826;-45
2023/08/01 08:13:22;;;;;;;7.95;7.00;;;;;;;26.53;84.18;100162.63;1758944;78;21805;-45
2023/08/01 08:16:29;;;;;;;41.20;37.13;;;;;;;26.66;84.19;100160.08;1781008;79;21212;-49
2023/08/01 08:20:10;;;;;;;14.75;12.58;;;;;;;26.77;84.12;100160.31;1747577;79;21856;-55
2023/08/01 08:23:10;;;;;;;11.70;10.23;;;;;;;26.83;83.90;100149.91;1765108;78;21832;-53
2023/08/01 08:26:57;;;;;;;10.82;7.95;;;;;;;26.78;83.61;100149.37;1667933;81;21304;-56
2023/08/01 08:30:22;;;;;;;10.68;7.75;;;;;;;26.75;83.48;100152.73;1713784;79;21276;-55
2023/08/01 08:33:33;;;;;;;7.42;6.55;;;;;;;26.70;83.26;100150.52;1694842;81;21230;-55
2023/08/01 08:36:41;;;;;;;7.33;6.03;;;;;;;26.67;83.18;100149.69;1685708;81;21260;-54
2023/08/01 08:39:47;;;;;;;8.20;7.37;;;;;;;26.78;83.45;100150.77;1679712;83;21264;-52
2023/08/01 08:42:54;;;;;;;10.00;6.70;;;;;;;26.96;83.70;100152.06;1685268;82;21743;-57
2023/08/01 08:46:02;;;;;;;8.68;7.20;;;;;;;27.14;83.73;100150.87;1665670;82;21589;-58
2023/08/01 08:49:09;;;;;;;8.63;7.53;;;;;;;27.35;83.70;100144.58;1669982;81;21229;-57
2023/08/01 08:52:18;;;;;;;7.12;6.17;;;;;;;27.55;83.48;100138.80;1677821;82;21768;-57
2023/08/01 08:55:28;;;;;;;7.17;5.90;;;;;;;27.69;82.81;100137.00;1643621;84;21337;-58
2023/08/01 08:58:41;;;;;;;6.62;4.95;;;;;;;27.80;82.34;100135.78;1662670;80;21291;-57
2023/08/01 09:01:46;;;;;;;6.20;5.58;;;;;;;27.93;82.16;100129.50;1665215;81;21227;-57
2023/08/01 09:04:51;;;;;;;6.25;4.50;;;;;;;28.07;82.02;100126.86;1659199;83;21231;-59
2023/08/01 09:07:58;;;;;;;7.85;4.58;;;;;;;28.16;81.58;100127.33;1662423;82;21241;-57
2023/08/01 09:11:04;;;;;;;5.12;4.22;;;;;;;28.23;81.35;100125.53;1671541;81;21291;-57
2023/08/01 09:14:09;;;;;;;4.65;4.15;;;;;;;28.26;81.00;100127.78;1657225;83;21223;-57
2023/08/01 09:17:18;;;;;;;6.67;4.28;;;;;;;28.27;80.78;100126.64;1663604;82;21240;-57
2023/08/01 09:20:23;;;;;;;8.28;4.33;;;;;;;28.36;79.67;100117.80;1670303;81;21857;-57
2023/08/01 09:23:30;;;;;;;5.10;4.28;;;;;;;28.36;79.67;100117.80;1625404;84;21279;-59
2023/08/01 09:26:36;;;;;;;5.05;4.47;;;;;;;28.27;79.41;100116.78;1665352;82;21778;-58
2023/08/01 09:29:42;;;;;;;5.67;4.55;;;;;;;28.21;79.46;100118.80;1650012;83;21760;-58
2023/08/01 09:33:03;;;;;;;6.42;4.28;;;;;;;28.20;79.44;100117.69;1699115;81;21676;-57
2023/08/01 09:36:09;;;;;;;5.45;4.67;;;;;;;28.23;79.40;100119.91;1692354;81;21326;-57
2023/08/01 09:39:15;;;;;;;9.95;5.00;;;;;;;28.23;79.14;100109.49;1694063;81;21885;-57
2023/08/01 09:42:22;;;;;;;12.35;5.65;;;;;;;28.23;78.97;100106.67;1661121;84;21317;-58
2023/08/01 09:45:26;;;;;;;6.12;3.83;;;;;;;28.27;78.76;100113.97;1671035;81;21229;-58
2023/08/01 09:48:33;;;;;;;6.17;4.37;;;;;;;28.28;78.46;100107.19;1670381;82;21228;-58
2023/08/01 09:51:41;;;;;;;6.25;4.80;;;;;;;28.30;78.33;100103.51;1629750;84;21245;-57
2023/08/01 09:54:47;;;;;;;5.92;4.12;;;;;;;28.36;78.22;100096.67;1681078;82;21251;-57
2023/08/01 09:57:54;;;;;;;7.58;4.75;;;;;;;28.39;77.90;100094.10;1701026;81;21247;-57
2023/08/01 10:01:01;;;;;;;5.40;4.60;;;;;;;28.43;77.69;100086.72;1649703;81;21323;-59
2023/08/01 10:04:08;;;;;;;6.85;4.75;;;;;;;28.54;77.72;100077.63;1678911;82;21229;-58
2023/08/01 10:07:18;;;;;;;7.83;5.30;;;;;;;28.54;77.72;100077.63;1696277;81;21936;-61
2023/08/01 10:10:25;;;;;;;7.03;4.80;;;;;;;28.71;77.04;100073.73;1686653;80;21734;-54
2023/08/01 10:13:32;;;;;;;9.13;4.70;;;;;;;28.71;77.04;100073.73;1689948;81;21387;-55
2023/08/01 10:16:39;;;;;;;5.33;4.40;;;;;;;28.78;76.90;100067.98;1682376;80;21254;-54
2023/08/01 10:19:46;;;;;;;7.45;4.05;;;;;;;28.82;76.58;100059.77;1683257;82;21729;-55
2023/08/01 10:22:51;;;;;;;5.15;4.40;;;;;;;28.88;76.30;100057.14;1685402;80;21242;-54
2023/08/01 10:25:59;;;;;;;5.85;5.25;;;;;;;28.89;75.96;100056.02;1676300;81;21210;-55
2023/08/01 10:29:07;;;;;;;8.00;4.72;;;;;;;28.92;75.66;100058.22;1688972;81;21772;-50
2023/08/01 10:32:15;;;;;;;5.95;4.42;;;;;;;28.96;75.34;100052.23;1699634;81;21260;-54
2023/08/01 10:35:23;;;;;;;6.30;5.70;;;;;;;28.98;75.07;100055.59;1668156;82;21609;-56
2023/08/01 10:38:30;;;;;;;6.05;5.45;;;;;;;29.02;74.84;100053.82;1638398;83;21725;-56
2023/08/01 10:41:49;;;;;;;6.92;5.15;;;;;;;29.01;74.41;100052.16;1628086;85;21272;-57
2023/08/01 10:44:56;;;;;;;5.62;4.80;;;;;;;29.05;74.26;100051.83;1639024;84;21650;-56
2023/08/01 10:48:16;;;;;;;10.05;4.25;;;;;;;29.18;73.68;100042.61;1666389;82;22047;-56
2023/08/01 10:51:22;;;;;;;7.33;4.72;;;;;;;29.18;73.68;100042.61;1639076;83;21280;-58
2023/08/01 10:54:29;;;;;;;9.23;3.98;;;;;;;29.23;73.05;100033.52;1677470;82;21256;-56
2023/08/01 10:57:35;;;;;;;7.22;3.75;;;;;;;29.23;73.05;100033.52;1678371;80;21232;-55
2023/08/01 11:00:41;;;;;;;4.78;3.72;;;;;;;29.29;72.67;100032.84;1670693;80;21270;-55
2023/08/01 11:03:46;;;;;;;6.30;3.52;;;;;;;29.37;72.49;100025.09;1687431;80;21543;-57
2023/08/01 11:06:58;;;;;;;4.80;4.00;;;;;;;29.49;72.40;100028.29;1645695;82;21245;-56
2023/08/01 11:10:19;;;;;;;5.03;4.53;;;;;;;29.58;72.15;100024.16;1702799;80;21256;-58
2023/08/01 11:13:26;;;;;;;5.15;4.58;;;;;;;29.73;71.82;100023.34;1686371;82;21236;-55
2023/08/01 11:16:33;;;;;;;5.50;3.98;;;;;;;29.83;71.36;100019.49;1660063;81;21812;-55
2023/08/01 11:19:40;;;;;;;5.25;4.75;;;;;;;29.90;71.04;100017.96;1665551;80;21252;-55
2023/08/01 11:22:47;;;;;;;7.40;5.60;;;;;;;29.97;70.70;100015.55;1692999;82;21235;-56
2023/08/01 11:25:54;;;;;;;6.22;4.00;;;;;;;30.06;70.35;100011.44;1707990;80;21239;-61
2023/08/01 11:28:59;;;;;;;7.47;4.70;;;;;;;30.08;69.80;100012.78;1699339;81;22158;-59
2023/08/01 11:32:07;;;;;;;4.80;4.12;;;;;;;30.14;69.61;100011.55;1706908;82;21191;-60
2023/08/01 11:35:14;;;;;;;4.80;4.30;;;;;;;30.21;69.26;100004.08;1697007;82;21600;-61
2023/08/01 11:38:21;;;;;;;6.40;4.30;;;;;;;30.26;68.89;100007.66;1659938;83;21822;-60
2023/08/01 11:41:27;;;;;;;5.90;4.40;;;;;;;30.28;68.30;100003.09;1679965;82;21740;-61
2023/08/01 11:44:33;;;;;;;5.78;5.17;;;;;;;30.28;67.84;100004.52;1677953;81;21674;-61
2023/08/01 11:47:38;;;;;;;8.60;5.42;;;;;;;30.31;67.60;100009.53;1699714;83;22086;-61
2023/08/01 11:50:45;;;;;;;6.67;4.97;;;;;;;30.33;67.23;100013.73;1687429;82;21220;-61
2023/08/01 11:53:52;;;;;;;7.58;5.10;;;;;;;30.35;66.90;100008.58;1679765;81;21623;-61
2023/08/01 11:57:03;;;;;;;7.00;4.85;;;;;;;30.40;66.72;100014.13;1669276;83;21332;-60
2023/08/01 12:00:11;;;;;;;6.22;4.60;;;;;;;30.47;66.45;100016.53;1663215;83;21272;-61
2023/08/01 12:03:17;;;;;;;7.70;5.28;;;;;;;30.52;66.18;100020.67;1676798;82;21214;-60
2023/08/01 12:06:27;;;;;;;7.03;5.58;;;;;;;30.54;65.79;100019.78;1685492;82;21208;-61
2023/08/01 12:09:33;;;;;;;5.78;5.08;;;;;;;30.57;65.35;100018.55;1680106;81;21616;-60
2023/08/01 12:12:39;;;;;;;6.83;5.67;;;;;;;30.59;65.02;100010.60;1686151;82;21244;-60
2023/08/01 12:15:48;;;;;;;8.58;5.80;;;;;;;30.58;64.60;100001.88;1673311;83;21185;-61
2023/08/01 12:18:54;;;;;;;6.55;5.72;;;;;;;30.59;64.23;99997.03;1643746;83;21740;-61
2023/08/01 12:22:00;;;;;;;5.40;4.83;;;;;;;30.57;63.85;99993.11;1677961;81;21202;-61
2023/08/01 12:25:07;;;;;;;8.65;5.67;;;;;;;30.56;63.52;99987.78;1669254;84;21258;-60
2023/08/01 12:28:16;;;;;;;5.53;5.03;;;;;;;30.52;63.19;99985.34;1673709;81;21210;-60
2023/08/01 12:31:26;;;;;;;7.87;6.60;;;;;;;30.53;63.04;99987.00;1709338;82;21364;-62
2023/08/01 12:34:31;;;;;;;8.23;5.28;;;;;;;30.55;62.76;99984.70;1707533;80;21201;-62
2023/08/01 12:37:38;;;;;;;6.60;5.50;;;;;;;30.56;62.42;99980.15;1689506;82;21268;-57
2023/08/01 12:40:43;;;;;;;5.78;5.17;;;;;;;30.59;62.11;99981.48;1700041;83;21220;-60
2023/08/01 12:43:51;;;;;;;7.03;5.85;;;;;;;30.60;61.80;99982.59;1699128;83;21462;-61
2023/08/01 12:46:56;;;;;;;7.37;5.17;;;;;;;30.62;61.54;99976.05;1694011;81;21235;-60
2023/08/01 12:50:03;;;;;;;6.58;5.50;;;;;;;30.64;61.25;99973.75;1674668;83;21382;-59
2023/08/01 12:53:10;;;;;;;6.67;5.37;;;;;;;30.62;60.91;99968.98;1668765;81;21649;-61
2023/08/01 12:56:16;;;;;;;6.12;5.22;;;;;;;30.67;60.71;99967.21;1655381;83;21859;-61
2023/08/01 12:59:23;;;;;;;6.45;5.00;;;;;;;30.67;60.39;99956.72;1677079;83;21232;-61
2023/08/01 13:02:29;;;;;;;6.42;5.20;;;;;;;30.65;60.03;99957.03;1678435;83;21295;-61
2023/08/01 13:05:36;;;;;;;6.35;4.67;;;;;;;30.56;59.60;99951.05;1710337;82;21276;-59
2023/08/01 13:08:42;;;;;;;6.75;4.95;;;;;;;30.52;59.39;99956.48;1698436;82;21286;-61
2023/08/01 13:11:49;;;;;;;7.17;5.08;;;;;;;30.52;59.13;99955.07;1665295;82;21423;-59
2023/08/01 13:14:58;;;;;;;6.12;4.72;;;;;;;30.54;58.92;99941.47;1656959;82;21321;-60
2023/08/01 13:18:07;;;;;;;8.18;5.08;;;;;;;30.52;58.61;99936.70;1696763;82;22184;-60
2023/08/01 13:21:13;;;;;;;6.03;4.80;;;;;;;30.46;58.34;99934.34;1691332;82;21194;-59
2023/08/01 13:24:21;;;;;;;5.05;4.55;;;;;;;30.45;58.17;99924.17;1691618;81;21605;-61
2023/08/01 13:27:28;;;;;;;6.75;4.85;;;;;;;30.46;57.99;99918.20;1679972;81;21796;-60
2023/08/01 13:30:34;;;;;;;5.95;5.35;;;;;;;30.51;57.89;99924.31;1679937;82;21248;-61
2023/08/01 13:33:42;;;;;;;6.08;5.20;;;;;;;30.57;57.82;99928.72;1683829;82;21324;-59
2023/08/01 13:36:49;;;;;;;7.25;4.83;;;;;;;30.64;57.67;99934.75;1688007;81;22054;-60
2023/08/01 13:39:54;;;;;;;6.97;5.17;;;;;;;30.65;57.28;99946.33;1688104;81;21235;-60
2023/08/01 13:43:02;;;;;;;16.77;9.58;;;;;;;30.62;57.01;99946.38;1683013;80;21243;-59
2023/08/01 13:46:08;;;;;;;7.47;5.97;;;;;;;30.64;56.83;99945.48;1693516;82;21248;-60
2023/08/01 13:49:16;;;;;;;7.70;4.72;;;;;;;30.68;56.66;99937.78;1683292;81;21253;-59
2023/08/01 13:52:24;;;;;;;7.22;5.22;;;;;;;30.79;56.40;99940.65;1697228;79;21224;-59
2023/08/01 13:55:30;;;;;;;4.55;4.05;;;;;;;30.85;56.12;99942.20;1707812;80;21276;-59
2023/08/01 13:58:36;;;;;;;7.03;5.10;;;;;;;30.87;55.77;99952.61;1692392;80;21232;-60
2023/08/01 14:01:46;;;;;;;7.20;5.15;;;;;;;30.93;55.60;99959.81;1679130;82;21243;-62
2023/08/01 14:04:52;;;;;;;8.35;5.30;;;;;;;30.91;55.41;99968.61;1684435;81;21785;-63
2023/08/01 14:07:59;;;;;;;8.55;5.47;;;;;;;30.82;55.20;99969.69;1682377;80;21227;-63
2023/08/01 14:11:05;;;;;;;14.28;4.95;;;;;;;30.64;54.83;99962.44;1655130;82;21297;-63
2023/08/01 14:14:10;;;;;;;14.33;4.67;;;;;;;30.36;54.25;99962.25;1677700;82;21236;-57
2023/08/01 14:17:17;;;;;;;5.85;3.62;;;;;;;30.16;54.02;99965.45;1673603;82;21253;-57
2023/08/01 14:20:23;;;;;;;6.97;3.47;;;;;;;29.96;53.83;99958.83;1682032;83;21265;-56
2023/08/01 14:23:28;;;;;;;8.33;3.17;;;;;;;29.76;53.57;99968.28;1680461;81;21284;-57